createdAt,value
2019-05-20T00:00:06.641Z,5.87
2019-05-20T00:02:35.764Z,6.03
2019-05-20T00:05:05.214Z,5.70
2019-05-20T00:07:34.427Z,5.90
2019-05-20T00:10:03.850Z,5.33
2019-05-20T00:12:33.063Z,5.40
2019-05-20T00:15:02.280Z,5.00
2019-05-20T00:17:31.443Z,5.43
2019-05-20T00:20:00.591Z,5.33
2019-05-20T00:22:29.753Z,5.57
2019-05-20T00:24:59.043Z,5.43
2019-05-20T00:27:28.260Z,5.40
2019-05-20T00:29:57.453Z,5.30
2019-05-20T00:32:40.314Z,4.83
2019-05-20T00:34:57.477Z,5.67
2019-05-20T00:37:26.714Z,5.07
2019-05-20T00:39:55.878Z,5.70
2019-05-20T00:42:24.982Z,5.33
2019-05-20T00:44:54.697Z,5.43
2019-05-20T00:47:23.887Z,5.90
2019-05-20T00:49:53.006Z,5.80
2019-05-20T00:52:22.259Z,6.03
2019-05-20T00:54:51.402Z,6.57
2019-05-20T00:57:20.523Z,6.33
2019-05-20T00:59:49.705Z,6.00
2019-05-20T01:02:19.258Z,6.47
2019-05-20T01:04:48.409Z,5.67
2019-05-20T01:07:17.562Z,6.07
2019-05-20T01:09:46.720Z,5.97
2019-05-20T01:12:15.883Z,6.10
2019-05-20T01:14:45.157Z,6.70
2019-05-20T01:17:14.713Z,5.80
2019-05-20T01:19:43.879Z,5.33
2019-05-20T01:22:13.059Z,5.27
2019-05-20T01:24:42.513Z,4.70
2019-05-20T01:27:11.862Z,5.33
2019-05-20T01:29:40.965Z,4.73
2019-05-20T01:32:10.174Z,4.70
2019-05-20T01:34:39.580Z,5.20
2019-05-20T01:37:08.706Z,4.47
2019-05-20T01:39:37.837Z,5.10
2019-05-20T01:42:07.173Z,4.77
2019-05-20T01:44:36.304Z,4.83
2019-05-20T01:47:07.005Z,4.93
2019-05-20T01:49:36.104Z,5.57
2019-05-20T01:52:05.289Z,5.10
2019-05-20T01:54:34.484Z,5.40
2019-05-20T01:57:03.648Z,5.50
2019-05-20T01:59:32.855Z,5.30
2019-05-20T02:02:02.041Z,5.90
2019-05-20T02:04:31.141Z,6.23
2019-05-20T02:07:00.454Z,5.93
2019-05-20T02:09:29.596Z,6.13
2019-05-20T02:11:58.757Z,7.23
2019-05-20T02:14:30.188Z,6.10
2019-05-20T02:17:02.509Z,6.57
2019-05-20T02:19:30.311Z,7.13
2019-05-20T02:21:59.878Z,6.87
2019-05-20T02:24:29.257Z,6.63
2019-05-20T02:26:58.470Z,6.50
2019-05-20T02:29:27.704Z,7.20
2019-05-20T02:31:57.137Z,7.00
2019-05-20T02:34:26.571Z,8.23
2019-05-20T02:36:55.722Z,7.37
2019-05-20T02:39:26.722Z,8.37
2019-05-20T02:41:55.760Z,8.60
2019-05-20T02:44:24.923Z,8.67
2019-05-20T02:46:54.108Z,8.93
2019-05-20T02:49:23.301Z,9.20
2019-05-20T02:51:52.518Z,9.13
2019-05-20T02:54:21.837Z,10.43
2019-05-20T02:56:51.037Z,11.07
2019-05-20T02:59:20.171Z,10.27
2019-05-20T03:01:49.367Z,10.50
2019-05-20T03:04:18.588Z,10.30
2019-05-20T03:06:47.751Z,10.80
2019-05-20T03:09:16.917Z,11.10
2019-05-20T03:11:46.113Z,11.03
2019-05-20T03:14:15.510Z,10.67
2019-05-20T03:16:44.732Z,10.77
2019-05-20T03:19:14.080Z,10.37
2019-05-20T03:21:43.247Z,11.10
2019-05-20T03:24:12.731Z,10.77
2019-05-20T03:26:42.128Z,10.97
2019-05-20T03:29:11.305Z,11.17
2019-05-20T03:31:40.561Z,11.70
2019-05-20T03:34:09.991Z,12.00
2019-05-20T03:36:39.340Z,12.67
2019-05-20T03:39:08.482Z,12.87
2019-05-20T03:41:37.659Z,12.33
2019-05-20T03:44:06.920Z,11.10
2019-05-20T03:46:36.088Z,13.13
2019-05-20T03:49:05.336Z,11.70
2019-05-20T03:51:34.488Z,10.73
2019-05-20T03:54:03.607Z,11.63
2019-05-20T03:56:33.066Z,11.97
2019-05-20T03:59:02.211Z,11.13
2019-05-20T04:01:31.498Z,11.97
2019-05-20T04:04:00.794Z,11.87
2019-05-20T04:06:30.115Z,11.63
2019-05-20T04:08:59.433Z,11.10
2019-05-20T04:11:28.619Z,10.83
2019-05-20T04:13:57.876Z,10.07
2019-05-20T04:16:27.267Z,11.17
2019-05-20T04:18:56.766Z,11.57
2019-05-20T04:21:25.899Z,11.67
2019-05-20T04:23:55.077Z,11.57
2019-05-20T04:26:24.256Z,11.23
2019-05-20T04:28:53.532Z,11.70
2019-05-20T04:31:22.694Z,11.30
2019-05-20T04:33:52.026Z,11.77
2019-05-20T04:36:21.171Z,11.10
2019-05-20T04:38:50.335Z,11.67
2019-05-20T04:41:19.652Z,12.30
2019-05-20T04:43:49.202Z,11.70
2019-05-20T04:46:18.588Z,12.40
2019-05-20T04:48:47.771Z,12.73
2019-05-20T04:51:16.978Z,13.63
2019-05-20T04:53:46.475Z,12.13
2019-05-20T04:56:16.227Z,11.73
2019-05-20T04:58:45.635Z,12.87
2019-05-20T05:01:14.785Z,12.90
2019-05-20T05:03:44.134Z,13.20
2019-05-20T05:06:13.455Z,12.77
2019-05-20T05:08:42.612Z,13.27
2019-05-20T05:11:11.759Z,13.23
2019-05-20T05:13:40.922Z,14.10
2019-05-20T05:16:10.385Z,14.57
2019-05-20T05:18:40.018Z,13.90
2019-05-20T05:21:09.321Z,13.80
2019-05-20T05:23:38.635Z,14.30
2019-05-20T05:26:07.942Z,14.13
2019-05-20T05:28:37.455Z,14.10
2019-05-20T05:31:06.669Z,14.33
2019-05-20T05:33:35.853Z,14.57
2019-05-20T05:36:04.958Z,15.70
2019-05-20T05:38:34.462Z,18.03
2019-05-20T05:41:03.650Z,16.57
2019-05-20T05:43:32.728Z,14.73
2019-05-20T05:46:02.034Z,14.13
2019-05-20T05:48:31.176Z,14.57
2019-05-20T05:51:00.325Z,14.70
2019-05-20T05:53:29.653Z,16.07
2019-05-20T05:55:58.822Z,14.90
2019-05-20T05:58:28.014Z,14.37
2019-05-20T06:00:57.198Z,13.93
2019-05-20T06:03:26.413Z,14.30
2019-05-20T06:06:10.721Z,12.33
2019-05-20T06:08:26.475Z,13.57
2019-05-20T06:10:55.667Z,12.87
2019-05-20T06:13:24.882Z,13.20
2019-05-20T06:15:54.750Z,14.77
2019-05-20T06:18:23.908Z,14.07
2019-05-20T06:20:53.078Z,13.73
2019-05-20T06:23:22.257Z,14.77
2019-05-20T06:25:51.476Z,15.30
2019-05-20T06:28:20.664Z,15.40
2019-05-20T06:30:49.880Z,16.53
2019-05-20T06:33:19.015Z,15.30
2019-05-20T06:35:48.367Z,15.13
2019-05-20T06:38:38.647Z,16.03
2019-05-20T06:41:08.283Z,17.03
2019-05-20T06:43:37.428Z,16.10
2019-05-20T06:46:06.605Z,16.93
2019-05-20T06:48:35.950Z,16.57
2019-05-20T06:51:05.088Z,16.93
2019-05-20T06:53:34.462Z,16.80
2019-05-20T06:56:03.629Z,16.60
2019-05-20T06:58:32.770Z,16.47
2019-05-20T07:01:02.263Z,16.00
2019-05-20T07:03:31.811Z,15.67
2019-05-20T07:06:01.109Z,17.23
2019-05-20T07:08:30.314Z,16.17
2019-05-20T07:10:59.445Z,17.70
2019-05-20T07:13:28.745Z,17.27
2019-05-20T07:15:57.947Z,17.00
2019-05-20T07:18:27.599Z,16.50
2019-05-20T07:20:56.833Z,18.80
2019-05-20T07:23:26.027Z,17.87
2019-05-20T07:25:55.240Z,17.87
2019-05-20T07:28:24.459Z,18.63
2019-05-20T07:30:53.777Z,19.50
2019-05-20T07:33:23.114Z,19.33
2019-05-20T07:35:52.567Z,21.07
2019-05-20T07:38:21.812Z,19.20
2019-05-20T07:40:51.039Z,19.23
2019-05-20T07:43:20.634Z,19.53
2019-05-20T07:45:49.971Z,19.43
2019-05-20T07:48:19.498Z,18.83
2019-05-20T07:50:49.349Z,19.87
2019-05-20T07:53:19.641Z,22.63
2019-05-20T07:56:00.723Z,21.00
2019-05-20T07:58:33.832Z,21.80
2019-05-20T08:01:03.245Z,21.27
2019-05-20T08:03:32.495Z,30.87
2019-05-20T08:06:01.682Z,21.60
2019-05-20T08:08:30.953Z,21.20
2019-05-20T08:11:00.056Z,22.73
2019-05-20T08:13:29.361Z,22.87
2019-05-20T08:15:58.537Z,22.07
2019-05-20T08:18:27.885Z,20.87
2019-05-20T08:20:57.174Z,23.47
2019-05-20T08:23:26.464Z,21.43
2019-05-20T08:25:55.627Z,25.67
2019-05-20T08:28:24.905Z,24.60
2019-05-20T08:30:54.046Z,26.07
2019-05-20T08:33:23.183Z,27.77
2019-05-20T08:35:52.586Z,29.13
2019-05-20T08:38:21.729Z,27.97
2019-05-20T08:40:51.002Z,28.13
2019-05-20T08:43:20.227Z,28.17
2019-05-20T08:45:49.398Z,33.23
2019-05-20T08:48:18.489Z,30.50
2019-05-20T08:50:47.927Z,31.27
2019-05-20T08:53:17.052Z,31.67
2019-05-20T08:55:46.283Z,34.40
2019-05-20T08:58:15.937Z,28.97
2019-05-20T09:00:45.197Z,33.77
2019-05-20T09:03:14.426Z,31.63
2019-05-20T09:05:43.677Z,31.10
2019-05-20T09:08:12.811Z,31.63
2019-05-20T09:10:41.982Z,35.13
2019-05-20T09:13:11.108Z,33.07
2019-05-20T09:15:40.512Z,32.93
2019-05-20T09:18:09.832Z,33.67
2019-05-20T09:20:39.001Z,34.13
2019-05-20T09:23:08.234Z,33.60
2019-05-20T09:25:37.465Z,34.87
2019-05-20T09:28:06.621Z,36.23
2019-05-20T09:30:35.810Z,34.60
2019-05-20T09:33:04.978Z,33.93
2019-05-20T09:35:34.292Z,34.17
2019-05-20T09:38:18.304Z,34.33
2019-05-20T09:40:39.471Z,35.13
2019-05-20T09:43:08.795Z,36.53
2019-05-20T09:45:37.947Z,34.67
2019-05-20T09:48:08.551Z,34.60
2019-05-20T09:50:37.677Z,35.50
2019-05-20T09:53:07.741Z,35.70
2019-05-20T09:55:37.597Z,34.23
2019-05-20T09:58:07.475Z,34.43
2019-05-20T10:00:37.001Z,33.87
2019-05-20T10:03:07.797Z,34.97
2019-05-20T10:05:37.840Z,33.17
2019-05-20T10:08:07.541Z,35.47
2019-05-20T10:10:37.021Z,35.27
2019-05-20T10:13:06.961Z,37.37
2019-05-20T10:15:36.496Z,35.97
2019-05-20T10:18:06.024Z,37.83
2019-05-20T10:20:35.186Z,36.17
2019-05-20T10:23:04.346Z,36.27
2019-05-20T10:25:33.646Z,35.10
2019-05-20T10:28:02.813Z,38.20
2019-05-20T10:30:31.951Z,36.03
2019-05-20T10:33:01.087Z,38.27
2019-05-20T10:35:30.220Z,38.93
2019-05-20T10:37:59.449Z,34.37
2019-05-20T10:40:28.753Z,37.87
2019-05-20T10:42:57.907Z,37.27
2019-05-20T10:45:27.229Z,38.10
2019-05-20T10:47:56.579Z,37.70
2019-05-20T10:50:25.908Z,37.70
2019-05-20T10:52:55.193Z,40.73
2019-05-20T10:55:24.411Z,36.73
2019-05-20T10:57:53.599Z,37.83
2019-05-20T11:00:22.964Z,40.13
2019-05-20T11:02:52.172Z,40.70
2019-05-20T11:05:21.538Z,39.00
2019-05-20T11:07:50.860Z,39.00
2019-05-20T11:10:20.441Z,39.77
2019-05-20T11:12:49.815Z,39.43
2019-05-20T11:15:19.062Z,39.33
2019-05-20T11:17:48.213Z,36.83
2019-05-20T11:20:17.650Z,40.23
2019-05-20T11:22:47.162Z,35.80
2019-05-20T11:25:17.148Z,36.93
2019-05-20T11:27:46.285Z,36.00
2019-05-20T11:30:15.658Z,36.07
2019-05-20T11:32:44.906Z,35.57
2019-05-20T11:35:14.990Z,32.70
2019-05-20T11:37:44.315Z,35.67
2019-05-20T11:40:14.575Z,33.97
2019-05-20T11:42:43.986Z,35.67
2019-05-20T11:45:14.447Z,34.40
2019-05-20T11:47:43.686Z,34.77
2019-05-20T11:50:14.612Z,33.60
2019-05-20T11:52:43.875Z,34.67
2019-05-20T11:55:13.677Z,30.77
2019-05-20T11:57:42.848Z,33.33
2019-05-20T12:00:12.729Z,33.23
2019-05-20T12:02:41.900Z,33.20
2019-05-20T12:05:11.970Z,32.83
2019-05-20T12:07:41.110Z,32.93
2019-05-20T12:10:11.229Z,33.17
2019-05-20T12:12:40.428Z,31.07
2019-05-20T12:15:10.154Z,31.00
2019-05-20T12:17:39.331Z,32.13
2019-05-20T12:20:11.776Z,31.90
2019-05-20T12:22:40.379Z,30.70
2019-05-20T12:25:10.063Z,30.50
2019-05-20T12:27:39.266Z,30.63
2019-05-20T12:30:10.295Z,29.27
2019-05-20T12:32:39.537Z,31.77
2019-05-20T12:35:09.491Z,30.27
2019-05-20T12:37:38.890Z,31.17
2019-05-20T12:40:09.019Z,29.10
2019-05-20T12:42:38.449Z,28.57
2019-05-20T12:45:08.852Z,25.87
2019-05-20T12:47:38.016Z,27.70
2019-05-20T12:50:08.112Z,25.27
2019-05-20T12:52:37.543Z,26.13
2019-05-20T12:55:09.486Z,25.30
2019-05-20T12:57:37.828Z,26.07
2019-05-20T13:00:07.718Z,25.57
2019-05-20T13:02:36.927Z,24.83
2019-05-20T13:05:06.488Z,24.00
2019-05-20T13:07:35.990Z,24.10
2019-05-20T13:10:26.073Z,23.73
2019-05-20T13:12:37.151Z,24.30
2019-05-20T13:15:06.668Z,25.03
2019-05-20T13:17:36.231Z,24.67
2019-05-20T13:20:05.801Z,25.97
2019-05-20T13:22:34.992Z,23.27
2019-05-20T13:25:04.199Z,26.47
2019-05-20T13:27:33.457Z,26.30
2019-05-20T13:30:02.620Z,25.20
2019-05-20T13:32:31.863Z,27.17
2019-05-20T13:35:01.076Z,26.30
2019-05-20T13:37:30.346Z,26.93
2019-05-20T13:40:02.831Z,29.47
2019-05-20T13:42:30.402Z,27.27
2019-05-20T13:44:59.546Z,27.03
2019-05-20T13:47:28.736Z,27.67
2019-05-20T13:49:58.102Z,26.23
2019-05-20T13:52:27.303Z,25.57
2019-05-20T13:54:56.457Z,24.50
2019-05-20T13:57:25.635Z,23.53
2019-05-20T13:59:54.881Z,24.97
2019-05-20T14:02:24.227Z,22.13
2019-05-20T14:04:53.415Z,23.67
2019-05-20T14:07:22.598Z,23.63
2019-05-20T14:09:51.916Z,23.20
2019-05-20T14:12:21.344Z,21.87
2019-05-20T14:14:50.738Z,21.43
2019-05-20T14:17:20.115Z,23.87
2019-05-20T14:19:49.611Z,21.37
2019-05-20T14:22:18.852Z,22.50
2019-05-20T14:24:48.090Z,22.77
2019-05-20T14:27:17.330Z,23.10
2019-05-20T14:29:46.715Z,22.43
2019-05-20T14:32:15.873Z,23.17
2019-05-20T14:34:45.053Z,22.80
2019-05-20T14:37:14.225Z,23.63
2019-05-20T14:39:43.588Z,22.43
2019-05-20T14:42:12.880Z,22.23
2019-05-20T14:44:42.213Z,24.00
2019-05-20T14:47:11.387Z,23.47
2019-05-20T14:49:40.547Z,24.07
2019-05-20T14:52:10.088Z,22.53
2019-05-20T14:54:39.435Z,25.80
2019-05-20T14:57:08.842Z,24.60
2019-05-20T14:59:38.009Z,23.70
2019-05-20T15:02:07.187Z,24.47
2019-05-20T15:04:37.148Z,23.37
2019-05-20T15:07:06.427Z,24.20
2019-05-20T15:09:35.619Z,25.43
2019-05-20T15:12:04.958Z,25.20
2019-05-20T15:14:34.108Z,23.87
2019-05-20T15:17:03.468Z,24.13
2019-05-20T15:19:32.899Z,22.60
2019-05-20T15:22:02.529Z,25.13
2019-05-20T15:24:31.758Z,24.50
2019-05-20T15:27:01.081Z,24.03
2019-05-20T15:29:30.340Z,25.17
2019-05-20T15:31:59.745Z,25.13
2019-05-20T15:34:29.220Z,24.27
2019-05-20T15:36:58.452Z,25.63
2019-05-20T15:39:27.655Z,26.37
2019-05-20T15:41:57.235Z,24.03
2019-05-20T15:44:26.809Z,26.27
2019-05-20T15:46:56.009Z,23.37
2019-05-20T15:49:25.347Z,25.43
2019-05-20T15:51:54.666Z,24.27
2019-05-20T15:54:23.860Z,24.80
2019-05-20T15:56:53.759Z,25.90
2019-05-20T15:59:22.931Z,25.80
2019-05-20T16:01:52.230Z,24.60
2019-05-20T16:04:21.518Z,26.43
2019-05-20T16:06:50.662Z,28.57
2019-05-20T16:09:20.064Z,29.10
2019-05-20T16:11:49.431Z,29.83
2019-05-20T16:14:18.841Z,30.10
2019-05-20T16:16:48.123Z,31.30
2019-05-20T16:19:17.330Z,30.43
2019-05-20T16:21:47.879Z,30.97
2019-05-20T16:24:17.259Z,30.03
2019-05-20T16:26:46.695Z,32.33
2019-05-20T16:29:15.971Z,30.37
2019-05-20T16:31:45.186Z,30.33
2019-05-20T16:34:14.440Z,32.27
2019-05-20T16:36:44.091Z,32.23
2019-05-20T16:39:13.524Z,32.53
2019-05-20T16:41:42.861Z,33.73
2019-05-20T16:44:12.130Z,32.93
2019-05-20T16:46:41.368Z,31.23
2019-05-20T16:49:10.692Z,30.07
2019-05-20T16:51:39.993Z,32.93
2019-05-20T16:54:09.191Z,32.10
2019-05-20T16:56:38.441Z,33.57
2019-05-20T16:59:07.647Z,33.60
2019-05-20T17:01:45.974Z,35.83
2019-05-20T17:04:07.835Z,35.80
2019-05-20T17:06:37.080Z,35.40
2019-05-20T17:09:06.766Z,34.40
2019-05-20T17:11:36.032Z,33.07
2019-05-20T17:14:05.180Z,35.37
2019-05-20T17:16:34.677Z,36.10
2019-05-20T17:19:03.884Z,35.83
2019-05-20T17:21:33.155Z,35.77
2019-05-20T17:24:02.375Z,38.47
2019-05-20T17:26:31.717Z,38.00
2019-05-20T17:29:00.990Z,39.40
2019-05-20T17:31:30.976Z,37.73
2019-05-20T17:34:07.071Z,40.27
2019-05-20T17:36:36.414Z,41.23
2019-05-20T17:39:07.153Z,38.77
2019-05-20T17:41:36.342Z,41.10
2019-05-20T17:44:05.587Z,39.53
2019-05-20T17:46:34.784Z,42.17
2019-05-20T17:49:03.984Z,42.23
2019-05-20T17:51:33.268Z,40.30
2019-05-20T17:54:02.480Z,38.57
2019-05-20T17:56:31.660Z,39.30
2019-05-20T17:59:00.905Z,37.10
2019-05-20T18:01:30.331Z,39.97
2019-05-20T18:03:59.613Z,41.03
2019-05-20T18:06:28.940Z,40.43
2019-05-20T18:09:00.355Z,40.33
2019-05-20T18:11:30.903Z,40.90
2019-05-20T18:14:00.400Z,39.23
2019-05-20T18:16:29.918Z,39.87
2019-05-20T18:18:59.136Z,41.00
2019-05-20T18:21:28.431Z,40.63
2019-05-20T18:23:57.679Z,39.27
2019-05-20T18:26:26.867Z,40.27
2019-05-20T18:28:56.212Z,41.57
2019-05-20T18:31:32.570Z,42.33
2019-05-20T18:33:56.587Z,42.37
2019-05-20T18:36:26.027Z,39.67
2019-05-20T18:38:55.461Z,39.67
2019-05-20T18:41:24.721Z,39.00
2019-05-20T18:43:53.984Z,39.03
2019-05-20T18:46:23.262Z,40.27
2019-05-20T18:48:52.529Z,41.37
2019-05-20T18:51:21.759Z,39.40
2019-05-20T18:53:50.995Z,40.57
2019-05-20T18:56:20.479Z,41.47
2019-05-20T18:58:49.668Z,41.50
2019-05-20T19:01:19.712Z,41.33
2019-05-20T19:03:49.077Z,41.30
2019-05-20T19:06:18.248Z,43.37
2019-05-20T19:08:47.432Z,40.33
2019-05-20T19:11:16.736Z,40.13
2019-05-20T19:13:46.294Z,45.50
2019-05-20T19:16:15.871Z,42.53
2019-05-20T19:18:45.337Z,41.67
2019-05-20T19:21:14.578Z,40.93
2019-05-20T19:23:43.778Z,43.60
2019-05-20T19:26:24.348Z,42.37
2019-05-20T19:28:44.231Z,40.83
2019-05-20T19:31:13.903Z,40.27
2019-05-20T19:33:43.178Z,40.60
2019-05-20T19:36:13.971Z,41.87
2019-05-20T19:38:43.244Z,43.80
2019-05-20T19:41:12.466Z,41.80
2019-05-20T19:43:41.895Z,40.00
2019-05-20T19:46:11.410Z,42.03
2019-05-20T19:48:40.848Z,42.63
2019-05-20T19:51:10.302Z,42.60
2019-05-20T19:53:39.956Z,40.97
2019-05-20T19:56:09.294Z,43.37
2019-05-20T19:58:38.466Z,46.60
2019-05-20T20:01:07.784Z,45.17
2019-05-20T20:03:37.089Z,47.60
2019-05-20T20:06:06.601Z,45.03
2019-05-20T20:08:36.408Z,45.27
2019-05-20T20:11:06.011Z,44.27
2019-05-20T20:13:35.315Z,44.00
2019-05-20T20:16:05.130Z,41.90
2019-05-20T20:18:34.509Z,41.53
2019-05-20T20:21:03.885Z,42.43
2019-05-20T20:23:33.082Z,41.03
2019-05-20T20:26:02.653Z,40.07
2019-05-20T20:28:31.959Z,42.50
2019-05-20T20:31:01.335Z,43.63
2019-05-20T20:33:30.618Z,42.37
2019-05-20T20:35:59.852Z,50.17
2019-05-20T20:38:29.052Z,51.53
2019-05-20T20:40:58.344Z,47.70
2019-05-20T20:43:27.685Z,48.90
2019-05-20T20:45:56.887Z,48.67
2019-05-20T20:48:26.093Z,47.43
2019-05-20T20:50:55.394Z,47.63
2019-05-20T20:53:24.624Z,46.60
2019-05-20T20:55:53.869Z,45.97
2019-05-20T20:58:23.111Z,46.03
2019-05-20T21:00:52.383Z,44.90
2019-05-20T21:03:21.600Z,48.37
2019-05-20T21:05:50.794Z,48.80
2019-05-20T21:08:20.040Z,48.77
2019-05-20T21:10:49.224Z,47.03
2019-05-20T21:13:18.470Z,47.83
2019-05-20T21:15:47.643Z,49.70
2019-05-20T21:18:16.800Z,51.37
2019-05-20T21:20:46.156Z,51.73
2019-05-20T21:23:16.276Z,48.90
2019-05-20T21:25:45.518Z,52.03
2019-05-20T21:28:14.752Z,53.77
2019-05-20T21:30:44.106Z,46.87
2019-05-20T21:33:13.430Z,51.53
2019-05-20T21:35:45.292Z,48.47
2019-05-20T21:38:13.640Z,48.70
2019-05-20T21:40:42.822Z,46.40
2019-05-20T21:43:12.071Z,46.50
2019-05-20T21:45:41.527Z,44.83
2019-05-20T21:48:10.950Z,46.13
2019-05-20T21:50:40.116Z,45.20
2019-05-20T21:53:09.329Z,46.97
2019-05-20T21:55:38.764Z,44.50
2019-05-20T21:58:07.954Z,46.60
2019-05-20T22:00:48.663Z,45.33
2019-05-20T22:03:24.535Z,48.33
2019-05-20T22:05:49.821Z,46.87
2019-05-20T22:08:19.081Z,45.60
2019-05-20T22:10:48.313Z,45.33
2019-05-20T22:13:17.610Z,46.13
2019-05-20T22:15:46.861Z,47.20
2019-05-20T22:18:16.040Z,47.67
2019-05-20T22:20:45.246Z,47.47
2019-05-20T22:23:29.089Z,45.83
2019-05-20T22:25:58.247Z,50.17
2019-05-20T22:28:27.555Z,46.50
2019-05-20T22:30:56.861Z,46.53
2019-05-20T22:33:40.227Z,51.17
2019-05-20T22:35:57.129Z,48.93
2019-05-20T22:38:26.397Z,49.20
2019-05-20T22:40:55.639Z,49.57
2019-05-20T22:43:24.808Z,48.60
2019-05-20T22:45:54.115Z,50.63
2019-05-20T22:48:23.791Z,50.23
2019-05-20T22:50:53.235Z,51.27
2019-05-20T22:53:22.422Z,52.33
2019-05-20T22:55:51.660Z,50.93
2019-05-20T22:58:20.970Z,49.53
2019-05-20T23:00:50.215Z,52.37
2019-05-20T23:03:19.679Z,49.93
2019-05-20T23:05:48.846Z,52.33
2019-05-20T23:08:18.000Z,51.20
2019-05-20T23:10:47.167Z,50.00
2019-05-20T23:13:16.426Z,50.73
2019-05-20T23:15:45.614Z,50.33
2019-05-20T23:18:14.773Z,51.30
2019-05-20T23:20:44.025Z,52.23
2019-05-20T23:23:13.210Z,54.20
2019-05-20T23:25:42.361Z,49.63
2019-05-20T23:28:11.531Z,54.73
2019-05-20T23:30:40.812Z,48.53
2019-05-20T23:33:10.046Z,50.87
2019-05-20T23:35:39.209Z,49.10
2019-05-20T23:38:08.405Z,50.70
2019-05-20T23:40:37.506Z,50.30
2019-05-20T23:43:06.705Z,49.27
2019-05-20T23:45:36.249Z,49.30
2019-05-20T23:48:05.412Z,50.57
2019-05-20T23:50:34.560Z,49.67
2019-05-20T23:53:03.857Z,48.60
2019-05-20T23:55:33.004Z,50.30
2019-05-20T23:58:02.198Z,48.13
